createdAt,value
2022-09-29T00:00:50.725Z,7.70
2022-09-29T00:03:18.188Z,7.69
2022-09-29T00:05:55.725Z,7.69
2022-09-29T00:08:24.815Z,7.67
2022-09-29T00:10:54.216Z,7.65
2022-09-29T00:13:21.688Z,7.61
2022-09-29T00:16:02.195Z,7.57
2022-09-29T00:18:30.020Z,7.52
2022-09-29T00:20:58.450Z,7.47
2022-09-29T00:23:25.963Z,7.49
2022-09-29T00:26:01.815Z,7.49
2022-09-29T00:28:31.133Z,7.50
2022-09-29T00:31:01.732Z,7.44
2022-09-29T00:33:33.569Z,7.47
2022-09-29T00:36:02.959Z,7.44
2022-09-29T00:38:30.779Z,7.42
2022-09-29T00:40:57.993Z,7.41
2022-09-29T00:43:54.686Z,7.38
2022-09-29T00:46:24.627Z,7.36
2022-09-29T00:48:52.398Z,7.32
2022-09-29T00:51:21.955Z,7.32
2022-09-29T00:53:49.502Z,7.33
2022-09-29T00:56:18.008Z,7.25
2022-09-29T00:59:07.292Z,7.25
2022-09-29T01:01:36.615Z,7.25
2022-09-29T01:04:11.757Z,7.19
2022-09-29T01:06:44.045Z,7.17
2022-09-29T01:09:16.020Z,7.20
2022-09-29T01:11:42.768Z,7.19
2022-09-29T01:14:11.610Z,7.12
2022-09-29T01:16:40.108Z,7.10
2022-09-29T01:19:11.516Z,7.09
2022-09-29T01:21:55.717Z,7.06
2022-09-29T01:24:54.139Z,7.00
2022-09-29T01:27:51.759Z,7.00
2022-09-29T01:30:42.027Z,6.97
2022-09-29T01:33:19.711Z,6.90
2022-09-29T01:35:54.726Z,6.89
2022-09-29T01:38:27.275Z,6.90
2022-09-29T01:41:18.278Z,6.87
2022-09-29T01:43:47.734Z,6.87
2022-09-29T01:46:40.327Z,6.86
2022-09-29T01:49:13.124Z,6.80
2022-09-29T01:52:14.776Z,6.82
2022-09-29T01:54:47.789Z,6.79
2022-09-29T01:57:20.434Z,6.78
2022-09-29T01:59:55.187Z,6.71
2022-09-29T02:02:41.902Z,6.71
2022-09-29T02:05:16.081Z,6.70
2022-09-29T02:07:46.421Z,6.73
2022-09-29T02:10:23.637Z,6.72
2022-09-29T02:12:57.026Z,6.65
2022-09-29T02:15:34.390Z,6.64
2022-09-29T02:18:10.055Z,6.63
2022-09-29T02:20:39.251Z,6.63
2022-09-29T02:23:05.729Z,6.61
2022-09-29T02:25:35.846Z,6.58
2022-09-29T02:28:06.115Z,6.56
2022-09-29T02:30:33.284Z,6.54
2022-09-29T02:32:59.834Z,6.52
2022-09-29T02:35:44.548Z,6.45
2022-09-29T02:38:30.878Z,6.50
2022-09-29T02:41:07.357Z,6.44
2022-09-29T02:43:52.514Z,6.43
2022-09-29T02:46:40.596Z,6.43
2022-09-29T02:49:39.420Z,6.39
2022-09-29T02:52:33.500Z,6.38
2022-09-29T02:55:18.678Z,6.33
2022-09-29T02:58:03.891Z,6.28
2022-09-29T03:00:31.315Z,6.22
2022-09-29T03:02:58.283Z,6.25
2022-09-29T03:05:25.981Z,6.24
2022-09-29T03:07:52.500Z,6.18
2022-09-29T03:10:19.650Z,6.18
2022-09-29T03:12:47.339Z,6.20
2022-09-29T03:15:17.888Z,6.18
2022-09-29T03:17:45.559Z,6.10
2022-09-29T03:20:12.259Z,6.16
2022-09-29T03:22:41.254Z,6.16
2022-09-29T03:25:08.945Z,6.12
2022-09-29T03:27:38.512Z,6.14
2022-09-29T03:30:05.802Z,6.10
2022-09-29T03:32:32.296Z,6.12
2022-09-29T03:34:58.840Z,6.11
2022-09-29T03:37:25.374Z,6.00
2022-09-29T03:39:54.183Z,6.09
2022-09-29T03:42:24.206Z,6.03
2022-09-29T03:44:50.899Z,6.02
2022-09-29T03:47:17.427Z,6.00
2022-09-29T03:49:43.904Z,6.00
2022-09-29T03:52:14.980Z,6.01
2022-09-29T03:54:41.504Z,6.01
2022-09-29T03:57:08.003Z,6.01
2022-09-29T03:59:37.069Z,5.95
2022-09-29T04:02:04.204Z,6.00
2022-09-29T04:04:30.746Z,5.94
2022-09-29T04:06:59.548Z,5.98
2022-09-29T04:09:26.024Z,5.93
2022-09-29T04:11:52.489Z,5.89
2022-09-29T04:14:19.288Z,5.93
2022-09-29T04:16:45.846Z,5.91
2022-09-29T04:19:12.461Z,5.86
2022-09-29T04:21:41.507Z,5.91
2022-09-29T04:24:10.336Z,5.91
2022-09-29T04:26:40.029Z,5.89
2022-09-29T04:29:09.463Z,5.85
2022-09-29T04:31:36.032Z,5.80
2022-09-29T04:34:02.729Z,5.82
2022-09-29T04:36:31.503Z,5.83
2022-09-29T04:38:58.091Z,5.78
2022-09-29T04:41:27.011Z,5.67
2022-09-29T04:43:53.550Z,5.79
2022-09-29T04:46:24.565Z,5.74
2022-09-29T04:48:53.377Z,5.72
2022-09-29T04:51:19.889Z,5.69
2022-09-29T04:53:46.384Z,5.63
2022-09-29T04:56:15.371Z,5.65
2022-09-29T04:58:44.231Z,5.66
2022-09-29T05:01:15.216Z,5.65
2022-09-29T05:03:42.742Z,5.61
2022-09-29T05:06:10.558Z,5.61
2022-09-29T05:08:37.225Z,5.60
2022-09-29T05:11:06.483Z,5.59
2022-09-29T05:13:33.614Z,5.56
2022-09-29T05:16:00.371Z,5.55
2022-09-29T05:18:27.329Z,5.54
2022-09-29T05:21:10.659Z,5.53
2022-09-29T05:23:42.264Z,5.55
2022-09-29T05:26:10.253Z,5.54
2022-09-29T05:28:38.359Z,5.54
2022-09-29T05:31:07.922Z,5.53
2022-09-29T05:33:36.046Z,5.58
2022-09-29T05:36:08.933Z,5.58
2022-09-29T05:38:38.611Z,5.52
2022-09-29T05:41:16.211Z,5.57
2022-09-29T05:43:42.897Z,5.53
2022-09-29T05:46:12.849Z,5.58
2022-09-29T05:48:39.490Z,5.51
2022-09-29T05:51:17.445Z,5.56
2022-09-29T05:53:49.970Z,5.55
2022-09-29T05:56:19.992Z,5.65
2022-09-29T05:58:46.838Z,5.63
2022-09-29T06:01:20.278Z,5.66
2022-09-29T06:03:47.278Z,5.67
2022-09-29T06:06:24.497Z,5.70
2022-09-29T06:08:52.024Z,5.73
2022-09-29T06:11:24.116Z,5.77
2022-09-29T06:13:52.535Z,5.75
2022-09-29T06:16:22.403Z,5.76
2022-09-29T06:18:49.109Z,5.80
2022-09-29T06:21:18.893Z,5.86
2022-09-29T06:23:45.983Z,5.89
2022-09-29T06:26:17.203Z,6.01
2022-09-29T06:28:47.427Z,6.01
2022-09-29T06:31:16.737Z,6.09
2022-09-29T06:33:44.087Z,6.13
2022-09-29T06:36:43.538Z,6.20
2022-09-29T06:39:12.708Z,6.29
2022-09-29T06:41:39.725Z,6.35
2022-09-29T06:44:06.476Z,6.42
2022-09-29T06:46:37.893Z,6.47
2022-09-29T06:49:04.475Z,6.34
2022-09-29T06:51:42.601Z,6.58
2022-09-29T06:54:16.188Z,6.62
2022-09-29T06:56:42.881Z,6.65
2022-09-29T06:59:09.414Z,6.73
2022-09-29T07:01:35.997Z,6.80
2022-09-29T07:04:02.839Z,6.90
2022-09-29T07:06:29.823Z,6.99
2022-09-29T07:08:58.754Z,7.03
2022-09-29T07:11:26.432Z,7.10
2022-09-29T07:13:55.797Z,7.18
2022-09-29T07:16:24.921Z,7.25
2022-09-29T07:18:51.995Z,7.28
2022-09-29T07:21:23.668Z,7.35
2022-09-29T07:23:50.331Z,7.37
2022-09-29T07:26:17.954Z,7.37
2022-09-29T07:28:46.982Z,7.47
2022-09-29T07:31:16.875Z,7.54
2022-09-29T07:33:48.240Z,7.58
2022-09-29T07:36:19.423Z,7.57
2022-09-29T07:38:47.430Z,7.64
2022-09-29T07:41:16.830Z,7.67
2022-09-29T07:43:45.808Z,7.80
2022-09-29T07:46:12.844Z,7.83
2022-09-29T07:48:42.411Z,7.85
2022-09-29T07:51:17.623Z,7.94
2022-09-29T07:53:44.561Z,8.02
2022-09-29T07:56:22.602Z,8.10
2022-09-29T07:58:52.940Z,8.15
2022-09-29T08:01:20.196Z,8.13
2022-09-29T08:03:53.047Z,8.33
2022-09-29T08:06:20.769Z,8.39
2022-09-29T08:09:01.136Z,8.37
2022-09-29T08:11:32.409Z,8.56
2022-09-29T08:14:00.623Z,8.88
2022-09-29T08:16:27.365Z,11.63
2022-09-29T08:18:56.488Z,14.25
2022-09-29T08:21:25.350Z,15.88
2022-09-29T08:23:51.933Z,17.09
2022-09-29T08:26:32.871Z,17.82
2022-09-29T08:29:08.826Z,18.38
2022-09-29T08:31:37.310Z,18.74
2022-09-29T08:34:04.084Z,19.10
2022-09-29T08:36:31.252Z,19.39
2022-09-29T08:38:58.147Z,19.55
2022-09-29T08:41:34.106Z,19.76
2022-09-29T08:44:42.380Z,19.82
2022-09-29T08:47:48.095Z,19.89
2022-09-29T08:50:26.814Z,19.82
2022-09-29T08:52:56.281Z,19.83
2022-09-29T08:55:34.112Z,19.62
2022-09-29T08:58:04.611Z,19.57
2022-09-29T09:00:42.700Z,19.48
2022-09-29T09:03:21.821Z,19.24
2022-09-29T09:05:58.141Z,19.10
2022-09-29T09:08:45.255Z,18.99
2022-09-29T09:11:48.904Z,18.45
2022-09-29T09:14:39.331Z,18.41
2022-09-29T09:17:32.790Z,18.26
2022-09-29T09:20:21.129Z,18.12
2022-09-29T09:23:01.230Z,17.94
2022-09-29T09:25:32.074Z,17.83
2022-09-29T09:28:25.126Z,17.69
2022-09-29T09:31:05.978Z,17.60
2022-09-29T09:34:07.487Z,17.58
2022-09-29T09:37:07.783Z,17.37
2022-09-29T09:39:47.433Z,17.08
2022-09-29T09:42:31.478Z,16.66
2022-09-29T09:45:03.281Z,16.74
2022-09-29T09:47:38.612Z,16.32
2022-09-29T09:50:26.199Z,16.25
2022-09-29T09:53:03.422Z,16.24
2022-09-29T09:55:34.974Z,16.20
2022-09-29T09:58:08.059Z,16.31
2022-09-29T10:00:58.795Z,16.55
2022-09-29T10:03:28.364Z,16.34
2022-09-29T10:05:55.193Z,16.17
2022-09-29T10:08:25.578Z,16.61
2022-09-29T10:10:59.168Z,16.75
2022-09-29T10:13:32.418Z,16.49
2022-09-29T10:16:11.895Z,16.64
2022-09-29T10:18:46.726Z,16.69
2022-09-29T10:21:31.352Z,16.81
2022-09-29T10:24:02.201Z,16.97
2022-09-29T10:26:43.440Z,17.13
2022-09-29T10:29:24.014Z,17.32
2022-09-29T10:32:10.396Z,17.22
2022-09-29T10:34:40.788Z,17.27
2022-09-29T10:37:24.980Z,17.40
2022-09-29T10:40:02.673Z,17.40
2022-09-29T10:42:36.316Z,17.31
2022-09-29T10:45:19.486Z,17.26
2022-09-29T10:47:49.523Z,17.49
2022-09-29T10:50:19.971Z,17.79
2022-09-29T10:53:19.750Z,17.80
2022-09-29T10:55:56.975Z,17.61
2022-09-29T10:58:52.563Z,17.72
2022-09-29T11:01:22.993Z,17.86
2022-09-29T11:04:01.384Z,17.95
2022-09-29T11:06:33.797Z,18.13
2022-09-29T11:09:26.400Z,18.20
2022-09-29T11:12:00.738Z,18.53
2022-09-29T11:14:30.571Z,18.66
2022-09-29T11:17:00.301Z,18.24
2022-09-29T11:19:29.539Z,18.54
2022-09-29T11:22:11.629Z,18.77
2022-09-29T11:25:07.307Z,18.87
2022-09-29T11:27:45.759Z,18.84
2022-09-29T11:30:18.946Z,18.68
2022-09-29T11:32:51.742Z,18.80
2022-09-29T11:36:09.248Z,18.55
2022-09-29T11:39:17.670Z,18.58
2022-09-29T11:42:08.476Z,18.49
2022-09-29T11:44:50.240Z,18.61
2022-09-29T11:47:35.840Z,18.69
2022-09-29T11:50:08.045Z,18.73
2022-09-29T11:52:47.497Z,18.85
2022-09-29T11:55:38.318Z,18.85
2022-09-29T11:58:20.053Z,18.80
2022-09-29T12:01:02.120Z,18.66
2022-09-29T12:03:50.681Z,18.89
2022-09-29T12:06:36.252Z,18.76
2022-09-29T12:09:41.227Z,18.32
2022-09-29T12:12:39.110Z,18.18
2022-09-29T12:15:34.165Z,18.08
2022-09-29T12:18:09.234Z,18.07
2022-09-29T12:20:42.605Z,18.05
2022-09-29T12:23:14.830Z,17.99
2022-09-29T12:25:52.151Z,17.98
2022-09-29T12:28:24.072Z,17.92
2022-09-29T12:30:59.651Z,18.08
2022-09-29T12:33:50.400Z,18.34
2022-09-29T12:36:43.149Z,18.71
2022-09-29T12:39:48.743Z,19.20
2022-09-29T12:42:35.980Z,19.62
2022-09-29T12:45:20.254Z,19.83
2022-09-29T12:48:17.491Z,19.89
2022-09-29T12:50:54.637Z,19.86
2022-09-29T12:53:45.014Z,19.99
2022-09-29T12:56:25.465Z,20.06
2022-09-29T12:59:03.841Z,20.08
2022-09-29T13:01:33.973Z,20.11
2022-09-29T13:04:25.582Z,20.31
2022-09-29T13:07:16.446Z,20.36
2022-09-29T13:09:52.146Z,20.41
2022-09-29T13:12:52.851Z,20.41
2022-09-29T13:15:45.891Z,20.45
2022-09-29T13:18:34.766Z,20.42
2022-09-29T13:21:17.101Z,20.44
2022-09-29T13:24:22.396Z,20.49
2022-09-29T13:27:14.047Z,20.35
2022-09-29T13:29:50.745Z,20.23
2022-09-29T13:32:20.671Z,20.21
2022-09-29T13:34:55.449Z,20.05
2022-09-29T13:37:27.481Z,19.94
2022-09-29T13:40:11.471Z,19.62
2022-09-29T13:42:45.549Z,19.53
2022-09-29T13:45:21.338Z,19.60
2022-09-29T13:47:50.226Z,19.59
2022-09-29T13:50:43.661Z,19.88
2022-09-29T13:53:19.353Z,19.91
2022-09-29T13:55:59.217Z,19.89
2022-09-29T13:58:32.426Z,19.77
2022-09-29T14:01:01.926Z,19.47
2022-09-29T14:03:43.053Z,19.26
2022-09-29T14:06:43.493Z,19.34
2022-09-29T14:09:19.844Z,19.17
2022-09-29T14:11:52.155Z,19.00
2022-09-29T14:14:37.839Z,18.80
2022-09-29T14:17:34.293Z,18.68
2022-09-29T14:20:23.052Z,18.42
2022-09-29T14:22:54.094Z,18.28
2022-09-29T14:25:20.590Z,18.17
2022-09-29T14:28:04.079Z,17.95
2022-09-29T14:30:35.197Z,17.74
2022-09-29T14:33:01.736Z,17.58
2022-09-29T14:35:29.846Z,17.46
2022-09-29T14:38:24.642Z,17.27
2022-09-29T14:41:01.115Z,17.30
2022-09-29T14:43:45.090Z,17.27
2022-09-29T14:46:48.888Z,17.34
2022-09-29T14:50:11.786Z,17.26
2022-09-29T14:52:55.763Z,17.06
2022-09-29T14:55:40.819Z,16.93
2022-09-29T14:58:33.758Z,16.82
2022-09-29T15:01:22.338Z,16.75
2022-09-29T15:03:51.942Z,16.62
2022-09-29T15:06:24.935Z,16.66
2022-09-29T15:09:04.828Z,16.63
2022-09-29T15:11:44.959Z,16.60
2022-09-29T15:14:29.453Z,16.53
2022-09-29T15:17:21.204Z,16.51
2022-09-29T15:20:08.133Z,16.51
2022-09-29T15:23:04.230Z,16.55
2022-09-29T15:25:47.202Z,16.39
2022-09-29T15:28:37.785Z,16.45
2022-09-29T15:31:07.378Z,16.47
2022-09-29T15:33:41.158Z,16.45
2022-09-29T15:36:33.920Z,16.51
2022-09-29T15:39:33.291Z,16.53
2022-09-29T15:42:02.111Z,16.57
2022-09-29T15:44:33.922Z,16.65
2022-09-29T15:47:00.731Z,16.65
2022-09-29T15:49:30.597Z,16.62
2022-09-29T15:52:01.388Z,16.60
2022-09-29T15:54:41.765Z,16.58
2022-09-29T15:57:46.056Z,16.55
2022-09-29T16:00:21.738Z,16.54
2022-09-29T16:02:51.422Z,16.52
2022-09-29T16:05:21.504Z,16.50
2022-09-29T16:08:21.599Z,16.53
2022-09-29T16:10:55.658Z,16.48
2022-09-29T16:13:28.399Z,16.38
2022-09-29T16:16:02.302Z,16.32
2022-09-29T16:18:33.663Z,16.24
2022-09-29T16:21:07.434Z,16.12
2022-09-29T16:23:49.153Z,16.09
2022-09-29T16:26:34.248Z,15.98
2022-09-29T16:29:07.939Z,15.88
2022-09-29T16:31:36.130Z,15.82
2022-09-29T16:34:02.941Z,16.03
2022-09-29T16:36:38.251Z,15.77
2022-09-29T16:39:17.949Z,15.63
2022-09-29T16:41:51.482Z,15.48
2022-09-29T16:44:23.255Z,15.45
2022-09-29T16:47:02.519Z,15.36
2022-09-29T16:49:35.059Z,15.26
2022-09-29T16:52:26.578Z,15.20
2022-09-29T16:54:55.736Z,15.05
2022-09-29T16:57:30.456Z,14.96
2022-09-29T17:00:12.393Z,14.86
2022-09-29T17:02:41.485Z,14.76
2022-09-29T17:05:08.587Z,14.61
2022-09-29T17:07:41.390Z,14.54
2022-09-29T17:10:24.847Z,14.67
2022-09-29T17:12:51.524Z,14.41
2022-09-29T17:15:22.368Z,14.30
2022-09-29T17:17:53.136Z,14.20
2022-09-29T17:20:29.241Z,14.11
2022-09-29T17:22:56.783Z,13.97
2022-09-29T17:25:23.388Z,13.90
2022-09-29T17:28:08.490Z,13.78
2022-09-29T17:30:39.551Z,13.65
2022-09-29T17:33:07.594Z,13.62
2022-09-29T17:35:37.921Z,13.53
2022-09-29T17:38:07.631Z,13.47
2022-09-29T17:40:52.030Z,13.38
2022-09-29T17:43:19.720Z,13.28
2022-09-29T17:45:47.012Z,13.19
2022-09-29T17:48:13.763Z,13.07
2022-09-29T17:50:46.523Z,13.01
2022-09-29T17:53:15.290Z,12.86
2022-09-29T17:55:42.699Z,12.85
2022-09-29T17:58:14.026Z,12.75
2022-09-29T18:00:40.592Z,12.72
2022-09-29T18:03:14.719Z,12.65
2022-09-29T18:05:43.281Z,12.58
2022-09-29T18:08:19.401Z,12.46
2022-09-29T18:10:52.609Z,12.41
2022-09-29T18:13:21.360Z,12.38
2022-09-29T18:15:48.395Z,12.27
2022-09-29T18:18:18.182Z,12.22
2022-09-29T18:20:47.151Z,12.15
2022-09-29T18:23:17.140Z,12.10
2022-09-29T18:25:47.937Z,12.05
2022-09-29T18:28:18.473Z,11.99
2022-09-29T18:30:48.697Z,11.93
2022-09-29T18:33:19.862Z,11.88
2022-09-29T18:35:52.644Z,11.78
2022-09-29T18:38:22.457Z,11.74
2022-09-29T18:40:52.135Z,11.68
2022-09-29T18:43:18.634Z,11.64
2022-09-29T18:45:45.245Z,11.57
2022-09-29T18:48:15.168Z,11.55
2022-09-29T18:50:44.478Z,11.49
2022-09-29T18:53:12.689Z,11.44
2022-09-29T18:55:44.638Z,11.40
2022-09-29T18:58:17.109Z,11.33
2022-09-29T19:00:47.420Z,11.32
2022-09-29T19:03:14.000Z,11.25
2022-09-29T19:05:42.532Z,11.20
2022-09-29T19:08:14.192Z,11.17
2022-09-29T19:10:47.018Z,11.11
2022-09-29T19:13:15.349Z,11.07
2022-09-29T19:15:45.251Z,11.03
2022-09-29T19:18:25.191Z,10.95
2022-09-29T19:20:55.145Z,10.96
2022-09-29T19:23:22.573Z,10.88
2022-09-29T19:25:53.313Z,10.86
2022-09-29T19:28:27.056Z,10.80
2022-09-29T19:31:03.699Z,10.75
2022-09-29T19:33:30.332Z,10.71
2022-09-29T19:36:04.491Z,10.68
2022-09-29T19:38:34.494Z,10.61
2022-09-29T19:41:01.394Z,10.58
2022-09-29T19:43:27.907Z,10.53
2022-09-29T19:45:59.333Z,10.50
2022-09-29T19:48:25.935Z,10.46
2022-09-29T19:51:19.661Z,10.43
2022-09-29T19:53:49.717Z,10.36
2022-09-29T19:56:16.815Z,10.35
2022-09-29T19:58:43.455Z,10.31
2022-09-29T20:01:11.921Z,10.30
2022-09-29T20:03:43.463Z,10.24
2022-09-29T20:06:10.388Z,10.22
2022-09-29T20:08:37.058Z,10.11
2022-09-29T20:11:09.332Z,10.14
2022-09-29T20:13:36.854Z,10.06
2022-09-29T20:16:05.736Z,10.05
2022-09-29T20:18:34.680Z,10.04
2022-09-29T20:21:09.872Z,9.97
2022-09-29T20:23:39.215Z,9.96
2022-09-29T20:26:09.048Z,9.95
2022-09-29T20:28:37.395Z,9.92
2022-09-29T20:31:06.164Z,9.80
2022-09-29T20:33:33.460Z,9.83
2022-09-29T20:36:04.462Z,9.77
2022-09-29T20:38:34.431Z,9.72
2022-09-29T20:41:01.668Z,9.71
2022-09-29T20:43:28.209Z,9.68
2022-09-29T20:46:04.194Z,9.65
2022-09-29T20:48:31.958Z,9.65
2022-09-29T20:51:01.828Z,9.65
2022-09-29T20:53:29.332Z,9.59
2022-09-29T20:56:01.881Z,9.59
2022-09-29T20:58:31.584Z,9.49
2022-09-29T21:01:12.706Z,9.52
2022-09-29T21:03:39.811Z,9.47
2022-09-29T21:06:06.514Z,9.41
2022-09-29T21:08:33.082Z,9.35
2022-09-29T21:11:05.406Z,9.32
2022-09-29T21:13:32.488Z,9.28
2022-09-29T21:16:02.396Z,9.32
2022-09-29T21:18:30.234Z,9.24
2022-09-29T21:20:58.858Z,9.23
2022-09-29T21:23:28.608Z,9.14
2022-09-29T21:26:07.089Z,9.11
2022-09-29T21:28:38.048Z,9.11
2022-09-29T21:31:13.589Z,9.13
2022-09-29T21:33:43.608Z,9.06
2022-09-29T21:36:15.778Z,9.05
2022-09-29T21:38:43.496Z,9.05
2022-09-29T21:41:23.695Z,9.03
2022-09-29T21:43:54.692Z,8.99
2022-09-29T21:46:23.875Z,8.89
2022-09-29T21:48:59.196Z,8.88
2022-09-29T21:51:29.450Z,8.89
2022-09-29T21:53:57.805Z,8.87
2022-09-29T21:56:30.485Z,8.79
2022-09-29T21:58:57.290Z,8.80
2022-09-29T22:01:24.368Z,8.77
2022-09-29T22:03:52.739Z,8.72
2022-09-29T22:06:27.187Z,8.71
2022-09-29T22:08:56.025Z,8.64
2022-09-29T22:11:31.169Z,8.58
2022-09-29T22:13:59.814Z,8.60
2022-09-29T22:16:31.091Z,8.52
2022-09-29T22:21:48.773Z,8.50
2022-09-29T22:24:15.478Z,8.46
2022-09-29T22:26:41.992Z,8.38
2022-09-29T22:29:10.733Z,8.39
2022-09-29T22:31:40.340Z,8.37
2022-09-29T22:34:07.635Z,8.36
2022-09-29T22:36:35.725Z,8.34
2022-09-29T22:39:04.104Z,8.33
2022-09-29T22:41:31.045Z,8.26
2022-09-29T22:43:59.393Z,8.27
2022-09-29T22:46:32.533Z,8.26
2022-09-29T22:48:59.695Z,8.27
2022-09-29T22:51:26.311Z,8.24
2022-09-29T22:53:55.129Z,8.20
2022-09-29T22:56:28.596Z,8.11
2022-09-29T22:59:00.500Z,8.10
2022-09-29T23:01:27.347Z,8.12
2022-09-29T23:03:53.953Z,8.06
2022-09-29T23:06:20.581Z,8.06
2022-09-29T23:08:47.087Z,8.04
2022-09-29T23:11:19.493Z,8.05
2022-09-29T23:13:46.918Z,8.01
2022-09-29T23:16:17.002Z,7.99
2022-09-29T23:18:47.320Z,7.94
2022-09-29T23:21:19.250Z,7.94
2022-09-29T23:23:46.993Z,7.86
2022-09-29T23:26:13.705Z,7.86
2022-09-29T23:28:42.811Z,7.88
2022-09-29T23:31:11.622Z,7.83
2022-09-29T23:33:38.389Z,7.76
2022-09-29T23:36:13.323Z,7.77
2022-09-29T23:39:00.470Z,7.79
2022-09-29T23:41:30.550Z,7.76
2022-09-29T23:44:05.363Z,7.77
2022-09-29T23:46:37.115Z,7.72
2022-09-29T23:49:09.723Z,7.72
2022-09-29T23:51:44.906Z,7.71
2022-09-29T23:54:18.048Z,7.67
2022-09-29T23:56:50.069Z,7.65
2022-09-29T23:59:16.735Z,7.62
